sensor_id;sensor_type;location;lat;lon;timestamp;temperature;humidity
51557;DHT22;38766;53.194;5.532;2023-04-24T00:00:55;11.40;99.90
51557;DHT22;38766;53.194;5.532;2023-04-24T00:03:26;11.40;99.90
51557;DHT22;38766;53.194;5.532;2023-04-24T00:05:54;11.40;99.90
51557;DHT22;38766;53.194;5.532;2023-04-24T00:08:19;11.40;99.90
51557;DHT22;38766;53.194;5.532;2023-04-24T00:10:45;11.40;99.90
51557;DHT22;38766;53.194;5.532;2023-04-24T00:13:11;11.30;99.90
51557;DHT22;38766;53.194;5.532;2023-04-24T00:15:37;11.30;99.90
51557;DHT22;38766;53.194;5.532;2023-04-24T00:18:02;11.40;99.90
51557;DHT22;38766;53.194;5.532;2023-04-24T00:20:28;11.30;99.90
51557;DHT22;38766;53.194;5.532;2023-04-24T00:23:01;11.30;99.90
51557;DHT22;38766;53.194;5.532;2023-04-24T00:25:26;11.30;99.90
51557;DHT22;38766;53.194;5.532;2023-04-24T00:27:52;11.20;99.90
51557;DHT22;38766;53.194;5.532;2023-04-24T00:30:18;11.30;99.90
51557;DHT22;38766;53.194;5.532;2023-04-24T00:32:43;11.40;99.90
51557;DHT22;38766;53.194;5.532;2023-04-24T00:35:09;11.30;99.90
51557;DHT22;38766;53.194;5.532;2023-04-24T00:37:35;11.30;99.90
51557;DHT22;38766;53.194;5.532;2023-04-24T00:40:01;11.30;99.90
51557;DHT22;38766;53.194;5.532;2023-04-24T00:42:28;11.30;99.90
51557;DHT22;38766;53.194;5.532;2023-04-24T00:44:53;11.30;99.90
51557;DHT22;38766;53.194;5.532;2023-04-24T00:47:19;11.30;99.90
51557;DHT22;38766;53.194;5.532;2023-04-24T00:49:45;11.30;99.90
51557;DHT22;38766;53.194;5.532;2023-04-24T00:52:11;11.30;99.90
51557;DHT22;38766;53.194;5.532;2023-04-24T00:54:37;11.30;99.90
51557;DHT22;38766;53.194;5.532;2023-04-24T00:57:03;11.30;99.90
51557;DHT22;38766;53.194;5.532;2023-04-24T00:59:29;11.30;99.90
51557;DHT22;38766;53.194;5.532;2023-04-24T01:01:55;11.30;99.90
51557;DHT22;38766;53.194;5.532;2023-04-24T01:04:21;11.20;99.90
51557;DHT22;38766;53.194;5.532;2023-04-24T01:06:48;11.20;99.90
51557;DHT22;38766;53.194;5.532;2023-04-24T01:09:15;11.20;99.90
51557;DHT22;38766;53.194;5.532;2023-04-24T01:11:42;11.20;99.90
51557;DHT22;38766;53.194;5.532;2023-04-24T01:14:10;11.20;99.90
51557;DHT22;38766;53.194;5.532;2023-04-24T01:16:35;11.20;99.90
51557;DHT22;38766;53.194;5.532;2023-04-24T01:19:04;11.10;99.90
51557;DHT22;38766;53.194;5.532;2023-04-24T01:21:35;11.10;99.90
51557;DHT22;38766;53.194;5.532;2023-04-24T01:24:03;11.10;99.90
51557;DHT22;38766;53.194;5.532;2023-04-24T01:26:28;11.10;99.90
51557;DHT22;38766;53.194;5.532;2023-04-24T01:28:54;11.10;99.90
51557;DHT22;38766;53.194;5.532;2023-04-24T01:31:20;11.10;99.90
51557;DHT22;38766;53.194;5.532;2023-04-24T01:33:47;11.10;99.90
51557;DHT22;38766;53.194;5.532;2023-04-24T01:36:13;11.10;99.90
51557;DHT22;38766;53.194;5.532;2023-04-24T01:38:39;11.10;99.90
51557;DHT22;38766;53.194;5.532;2023-04-24T01:41:05;11.10;99.90
51557;DHT22;38766;53.194;5.532;2023-04-24T01:43:31;11.10;99.90
51557;DHT22;38766;53.194;5.532;2023-04-24T01:45:57;11.10;99.90
51557;DHT22;38766;53.194;5.532;2023-04-24T01:48:23;11.10;99.90
51557;DHT22;38766;53.194;5.532;2023-04-24T01:50:49;11.10;99.90
51557;DHT22;38766;53.194;5.532;2023-04-24T01:53:14;11.10;99.90
51557;DHT22;38766;53.194;5.532;2023-04-24T01:55:40;11.10;99.90
51557;DHT22;38766;53.194;5.532;2023-04-24T01:58:06;11.10;99.90
51557;DHT22;38766;53.194;5.532;2023-04-24T02:00:32;11.10;99.90
51557;DHT22;38766;53.194;5.532;2023-04-24T02:02:58;11.10;99.90
51557;DHT22;38766;53.194;5.532;2023-04-24T02:05:23;11.10;99.90
51557;DHT22;38766;53.194;5.532;2023-04-24T02:07:49;11.10;99.90
51557;DHT22;38766;53.194;5.532;2023-04-24T02:10:15;11.10;99.90
51557;DHT22;38766;53.194;5.532;2023-04-24T02:12:41;11.10;99.90
51557;DHT22;38766;53.194;5.532;2023-04-24T02:15:06;11.00;99.90
51557;DHT22;38766;53.194;5.532;2023-04-24T02:17:32;11.00;99.90
51557;DHT22;38766;53.194;5.532;2023-04-24T02:19:58;11.00;99.90
51557;DHT22;38766;53.194;5.532;2023-04-24T02:22:23;11.00;99.90
51557;DHT22;38766;53.194;5.532;2023-04-24T02:24:49;11.00;99.90
51557;DHT22;38766;53.194;5.532;2023-04-24T02:27:15;10.90;99.90
51557;DHT22;38766;53.194;5.532;2023-04-24T02:29:40;10.90;99.90
51557;DHT22;38766;53.194;5.532;2023-04-24T02:32:06;10.90;99.90
51557;DHT22;38766;53.194;5.532;2023-04-24T02:34:31;10.90;99.90
51557;DHT22;38766;53.194;5.532;2023-04-24T02:36:57;10.90;99.90
51557;DHT22;38766;53.194;5.532;2023-04-24T02:39:23;10.90;99.90
51557;DHT22;38766;53.194;5.532;2023-04-24T02:41:48;10.90;99.90
51557;DHT22;38766;53.194;5.532;2023-04-24T02:44:14;10.80;99.90
51557;DHT22;38766;53.194;5.532;2023-04-24T02:46:40;10.80;99.90
51557;DHT22;38766;53.194;5.532;2023-04-24T02:49:07;10.80;99.90
51557;DHT22;38766;53.194;5.532;2023-04-24T02:51:33;10.70;99.90
51557;DHT22;38766;53.194;5.532;2023-04-24T02:53:58;10.70;99.90
51557;DHT22;38766;53.194;5.532;2023-04-24T02:56:24;10.70;99.90
51557;DHT22;38766;53.194;5.532;2023-04-24T02:58:50;10.80;99.90
51557;DHT22;38766;53.194;5.532;2023-04-24T03:01:15;10.70;99.90
51557;DHT22;38766;53.194;5.532;2023-04-24T03:03:41;10.80;99.90
51557;DHT22;38766;53.194;5.532;2023-04-24T03:06:06;10.70;99.90
51557;DHT22;38766;53.194;5.532;2023-04-24T03:08:33;10.70;99.90
51557;DHT22;38766;53.194;5.532;2023-04-24T03:10:59;10.70;99.90
51557;DHT22;38766;53.194;5.532;2023-04-24T03:13:25;10.70;99.90
51557;DHT22;38766;53.194;5.532;2023-04-24T03:15:50;10.70;99.90
51557;DHT22;38766;53.194;5.532;2023-04-24T03:18:16;10.70;99.90
51557;DHT22;38766;53.194;5.532;2023-04-24T03:20:42;10.60;99.90
51557;DHT22;38766;53.194;5.532;2023-04-24T03:23:07;10.60;99.90
51557;DHT22;38766;53.194;5.532;2023-04-24T03:25:33;10.60;99.90
51557;DHT22;38766;53.194;5.532;2023-04-24T03:27:59;10.60;99.90
51557;DHT22;38766;53.194;5.532;2023-04-24T03:30:24;10.60;99.90
51557;DHT22;38766;53.194;5.532;2023-04-24T03:32:50;10.60;99.90
51557;DHT22;38766;53.194;5.532;2023-04-24T03:35:15;10.50;99.90
51557;DHT22;38766;53.194;5.532;2023-04-24T03:37:41;10.60;99.90
51557;DHT22;38766;53.194;5.532;2023-04-24T03:40:07;10.50;99.90
51557;DHT22;38766;53.194;5.532;2023-04-24T03:42:33;10.50;99.90
51557;DHT22;38766;53.194;5.532;2023-04-24T03:44:59;10.50;99.90
51557;DHT22;38766;53.194;5.532;2023-04-24T03:47:24;10.50;99.90
51557;DHT22;38766;53.194;5.532;2023-04-24T03:49:50;10.50;99.90
51557;DHT22;38766;53.194;5.532;2023-04-24T03:52:16;10.50;99.90
51557;DHT22;38766;53.194;5.532;2023-04-24T03:54:42;10.50;99.90
51557;DHT22;38766;53.194;5.532;2023-04-24T03:57:07;10.50;99.90
51557;DHT22;38766;53.194;5.532;2023-04-24T03:59:33;10.40;99.90
51557;DHT22;38766;53.194;5.532;2023-04-24T04:01:58;10.40;99.90
51557;DHT22;38766;53.194;5.532;2023-04-24T04:04:24;10.40;99.90
51557;DHT22;38766;53.194;5.532;2023-04-24T04:06:50;10.40;99.90
51557;DHT22;38766;53.194;5.532;2023-04-24T04:09:16;10.30;99.90
51557;DHT22;38766;53.194;5.532;2023-04-24T04:11:42;10.30;99.90
51557;DHT22;38766;53.194;5.532;2023-04-24T04:14:07;10.30;99.90
51557;DHT22;38766;53.194;5.532;2023-04-24T04:16:33;10.30;99.90
51557;DHT22;38766;53.194;5.532;2023-04-24T04:18:59;10.30;99.90
51557;DHT22;38766;53.194;5.532;2023-04-24T04:21:24;10.30;99.90
51557;DHT22;38766;53.194;5.532;2023-04-24T04:23:51;10.30;99.90
51557;DHT22;38766;53.194;5.532;2023-04-24T04:26:17;10.30;99.90
51557;DHT22;38766;53.194;5.532;2023-04-24T04:28:44;10.20;99.90
51557;DHT22;38766;53.194;5.532;2023-04-24T04:31:10;10.20;99.90
51557;DHT22;38766;53.194;5.532;2023-04-24T04:33:35;10.30;99.90
51557;DHT22;38766;53.194;5.532;2023-04-24T04:36:03;10.20;99.90
51557;DHT22;38766;53.194;5.532;2023-04-24T04:38:29;10.20;99.90
51557;DHT22;38766;53.194;5.532;2023-04-24T04:40:55;10.20;99.90
51557;DHT22;38766;53.194;5.532;2023-04-24T04:43:23;10.20;99.90
51557;DHT22;38766;53.194;5.532;2023-04-24T04:45:49;10.20;99.90
51557;DHT22;38766;53.194;5.532;2023-04-24T04:48:17;10.20;99.90
51557;DHT22;38766;53.194;5.532;2023-04-24T04:50:43;10.20;99.90
51557;DHT22;38766;53.194;5.532;2023-04-24T04:53:08;10.20;99.90
51557;DHT22;38766;53.194;5.532;2023-04-24T04:55:34;10.20;99.90
51557;DHT22;38766;53.194;5.532;2023-04-24T04:58:00;10.20;99.90
51557;DHT22;38766;53.194;5.532;2023-04-24T05:00:26;10.20;99.90
51557;DHT22;38766;53.194;5.532;2023-04-24T05:02:52;10.20;99.90
51557;DHT22;38766;53.194;5.532;2023-04-24T05:05:18;10.20;99.90
51557;DHT22;38766;53.194;5.532;2023-04-24T05:07:44;10.20;99.90
51557;DHT22;38766;53.194;5.532;2023-04-24T05:10:10;10.10;99.90
51557;DHT22;38766;53.194;5.532;2023-04-24T05:12:36;10.10;99.90
51557;DHT22;38766;53.194;5.532;2023-04-24T05:15:02;10.20;99.90
51557;DHT22;38766;53.194;5.532;2023-04-24T05:17:28;10.20;99.90
51557;DHT22;38766;53.194;5.532;2023-04-24T05:19:54;10.20;99.90
51557;DHT22;38766;53.194;5.532;2023-04-24T05:22:19;10.10;99.90
51557;DHT22;38766;53.194;5.532;2023-04-24T05:24:47;10.20;99.90
51557;DHT22;38766;53.194;5.532;2023-04-24T05:27:12;10.20;99.90
51557;DHT22;38766;53.194;5.532;2023-04-24T05:29:38;10.10;99.90
51557;DHT22;38766;53.194;5.532;2023-04-24T05:32:06;10.10;99.90
51557;DHT22;38766;53.194;5.532;2023-04-24T05:34:32;10.10;99.90
51557;DHT22;38766;53.194;5.532;2023-04-24T05:36:58;10.10;99.90
51557;DHT22;38766;53.194;5.532;2023-04-24T05:39:23;10.00;99.90
51557;DHT22;38766;53.194;5.532;2023-04-24T05:41:51;10.10;99.90
51557;DHT22;38766;53.194;5.532;2023-04-24T05:44:16;10.00;99.90
51557;DHT22;38766;53.194;5.532;2023-04-24T05:46:42;10.00;99.90
51557;DHT22;38766;53.194;5.532;2023-04-24T05:49:08;10.00;99.90
51557;DHT22;38766;53.194;5.532;2023-04-24T05:51:34;10.00;99.90
51557;DHT22;38766;53.194;5.532;2023-04-24T05:53:59;10.00;99.90
51557;DHT22;38766;53.194;5.532;2023-04-24T05:56:25;10.00;99.90
51557;DHT22;38766;53.194;5.532;2023-04-24T05:58:50;9.90;99.90
51557;DHT22;38766;53.194;5.532;2023-04-24T06:01:16;9.90;99.90
51557;DHT22;38766;53.194;5.532;2023-04-24T06:03:42;9.90;99.90
51557;DHT22;38766;53.194;5.532;2023-04-24T06:06:08;9.90;99.90
51557;DHT22;38766;53.194;5.532;2023-04-24T06:08:34;9.90;99.90
51557;DHT22;38766;53.194;5.532;2023-04-24T06:11:00;9.90;99.90
51557;DHT22;38766;53.194;5.532;2023-04-24T06:13:26;9.80;99.90
51557;DHT22;38766;53.194;5.532;2023-04-24T06:15:52;9.80;99.90
51557;DHT22;38766;53.194;5.532;2023-04-24T06:18:18;9.80;99.90
51557;DHT22;38766;53.194;5.532;2023-04-24T06:20:45;9.70;99.90
51557;DHT22;38766;53.194;5.532;2023-04-24T06:23:11;9.70;99.90
51557;DHT22;38766;53.194;5.532;2023-04-24T06:25:37;9.70;99.90
51557;DHT22;38766;53.194;5.532;2023-04-24T06:28:03;9.70;99.90
51557;DHT22;38766;53.194;5.532;2023-04-24T06:30:29;9.70;99.90
51557;DHT22;38766;53.194;5.532;2023-04-24T06:32:55;9.70;99.90
51557;DHT22;38766;53.194;5.532;2023-04-24T06:35:20;9.60;99.90
51557;DHT22;38766;53.194;5.532;2023-04-24T06:37:46;9.60;99.90
51557;DHT22;38766;53.194;5.532;2023-04-24T06:40:12;9.60;99.90
51557;DHT22;38766;53.194;5.532;2023-04-24T06:42:38;9.70;99.90
51557;DHT22;38766;53.194;5.532;2023-04-24T06:45:04;9.70;99.90
51557;DHT22;38766;53.194;5.532;2023-04-24T06:47:30;9.60;99.90
51557;DHT22;38766;53.194;5.532;2023-04-24T06:49:56;9.60;99.90
51557;DHT22;38766;53.194;5.532;2023-04-24T06:52:22;9.60;99.90
51557;DHT22;38766;53.194;5.532;2023-04-24T06:54:48;9.60;99.90
51557;DHT22;38766;53.194;5.532;2023-04-24T06:57:14;9.60;99.90
51557;DHT22;38766;53.194;5.532;2023-04-24T06:59:41;9.50;99.90
51557;DHT22;38766;53.194;5.532;2023-04-24T07:02:07;9.60;99.90
51557;DHT22;38766;53.194;5.532;2023-04-24T07:04:33;9.60;99.90
51557;DHT22;38766;53.194;5.532;2023-04-24T07:06:58;9.60;99.90
51557;DHT22;38766;53.194;5.532;2023-04-24T07:09:25;9.60;99.90
51557;DHT22;38766;53.194;5.532;2023-04-24T07:11:51;9.60;99.90
51557;DHT22;38766;53.194;5.532;2023-04-24T07:14:18;9.60;99.90
51557;DHT22;38766;53.194;5.532;2023-04-24T07:16:44;9.60;99.90
51557;DHT22;38766;53.194;5.532;2023-04-24T07:19:12;9.60;99.90
51557;DHT22;38766;53.194;5.532;2023-04-24T07:21:37;9.70;99.90
51557;DHT22;38766;53.194;5.532;2023-04-24T07:24:03;9.60;99.90
51557;DHT22;38766;53.194;5.532;2023-04-24T07:26:30;9.60;99.90
51557;DHT22;38766;53.194;5.532;2023-04-24T07:28:56;9.70;99.90
51557;DHT22;38766;53.194;5.532;2023-04-24T07:31:22;9.80;99.90
51557;DHT22;38766;53.194;5.532;2023-04-24T07:33:48;9.70;99.90
51557;DHT22;38766;53.194;5.532;2023-04-24T07:36:14;9.70;99.90
51557;DHT22;38766;53.194;5.532;2023-04-24T07:38:44;9.80;99.90
51557;DHT22;38766;53.194;5.532;2023-04-24T07:41:10;9.80;99.90
51557;DHT22;38766;53.194;5.532;2023-04-24T07:43:37;9.80;99.90
51557;DHT22;38766;53.194;5.532;2023-04-24T07:46:03;9.90;99.90
51557;DHT22;38766;53.194;5.532;2023-04-24T07:48:28;9.90;99.90
51557;DHT22;38766;53.194;5.532;2023-04-24T07:50:54;9.90;99.90
51557;DHT22;38766;53.194;5.532;2023-04-24T07:53:20;9.90;99.90
51557;DHT22;38766;53.194;5.532;2023-04-24T07:55:46;9.90;99.90
51557;DHT22;38766;53.194;5.532;2023-04-24T07:58:11;9.90;99.90
51557;DHT22;38766;53.194;5.532;2023-04-24T08:00:37;9.90;99.90
51557;DHT22;38766;53.194;5.532;2023-04-24T08:03:03;10.00;99.90
51557;DHT22;38766;53.194;5.532;2023-04-24T08:05:28;10.00;99.90
51557;DHT22;38766;53.194;5.532;2023-04-24T08:07:55;10.00;99.90
51557;DHT22;38766;53.194;5.532;2023-04-24T08:10:22;10.10;99.90
51557;DHT22;38766;53.194;5.532;2023-04-24T08:12:48;10.00;99.90
51557;DHT22;38766;53.194;5.532;2023-04-24T08:15:13;10.10;99.90
51557;DHT22;38766;53.194;5.532;2023-04-24T08:17:39;10.10;99.90
51557;DHT22;38766;53.194;5.532;2023-04-24T08:20:06;10.10;99.90
51557;DHT22;38766;53.194;5.532;2023-04-24T08:22:35;10.20;99.90
51557;DHT22;38766;53.194;5.532;2023-04-24T08:25:01;10.20;99.90
51557;DHT22;38766;53.194;5.532;2023-04-24T08:27:27;10.20;99.90
51557;DHT22;38766;53.194;5.532;2023-04-24T08:29:53;10.20;99.90
51557;DHT22;38766;53.194;5.532;2023-04-24T08:32:19;10.30;99.90
51557;DHT22;38766;53.194;5.532;2023-04-24T08:34:45;10.30;99.90
51557;DHT22;38766;53.194;5.532;2023-04-24T08:37:10;10.40;99.90
51557;DHT22;38766;53.194;5.532;2023-04-24T08:39:37;10.30;99.90
51557;DHT22;38766;53.194;5.532;2023-04-24T08:42:04;10.40;99.90
51557;DHT22;38766;53.194;5.532;2023-04-24T08:44:33;10.40;99.90
51557;DHT22;38766;53.194;5.532;2023-04-24T08:47:01;10.40;99.90
51557;DHT22;38766;53.194;5.532;2023-04-24T08:49:28;10.40;99.90
51557;DHT22;38766;53.194;5.532;2023-04-24T08:51:54;10.30;99.90
51557;DHT22;38766;53.194;5.532;2023-04-24T08:54:21;10.30;99.90
51557;DHT22;38766;53.194;5.532;2023-04-24T08:56:48;10.30;99.90
51557;DHT22;38766;53.194;5.532;2023-04-24T08:59:15;10.30;99.90
51557;DHT22;38766;53.194;5.532;2023-04-24T09:01:41;10.30;99.90
51557;DHT22;38766;53.194;5.532;2023-04-24T09:04:08;10.30;99.90
51557;DHT22;38766;53.194;5.532;2023-04-24T09:06:38;10.40;99.90
51557;DHT22;38766;53.194;5.532;2023-04-24T09:09:04;10.30;99.90
51557;DHT22;38766;53.194;5.532;2023-04-24T09:11:32;10.40;99.90
51557;DHT22;38766;53.194;5.532;2023-04-24T09:14:00;10.40;99.90
51557;DHT22;38766;53.194;5.532;2023-04-24T09:16:27;10.40;99.90
51557;DHT22;38766;53.194;5.532;2023-04-24T09:18:53;10.40;99.90
51557;DHT22;38766;53.194;5.532;2023-04-24T09:21:21;10.40;99.90
51557;DHT22;38766;53.194;5.532;2023-04-24T09:23:58;10.50;99.90
51557;DHT22;38766;53.194;5.532;2023-04-24T09:26:24;10.30;99.90
51557;DHT22;38766;53.194;5.532;2023-04-24T09:28:51;10.40;99.90
51557;DHT22;38766;53.194;5.532;2023-04-24T09:31:19;10.40;99.90
51557;DHT22;38766;53.194;5.532;2023-04-24T09:34:04;10.40;99.90
51557;DHT22;38766;53.194;5.532;2023-04-24T09:36:38;10.40;99.90
51557;DHT22;38766;53.194;5.532;2023-04-24T09:39:05;10.30;99.90
51557;DHT22;38766;53.194;5.532;2023-04-24T09:41:32;10.40;99.90
51557;DHT22;38766;53.194;5.532;2023-04-24T09:44:17;10.40;99.90
51557;DHT22;38766;53.194;5.532;2023-04-24T09:46:45;10.40;99.90
51557;DHT22;38766;53.194;5.532;2023-04-24T09:49:15;10.40;99.90
51557;DHT22;38766;53.194;5.532;2023-04-24T09:51:42;10.40;99.90
51557;DHT22;38766;53.194;5.532;2023-04-24T09:54:23;10.50;99.90
51557;DHT22;38766;53.194;5.532;2023-04-24T09:56:50;10.50;99.90
51557;DHT22;38766;53.194;5.532;2023-04-24T09:59:19;10.50;99.90
51557;DHT22;38766;53.194;5.532;2023-04-24T10:01:45;10.50;99.90
51557;DHT22;38766;53.194;5.532;2023-04-24T10:04:18;10.50;99.90
51557;DHT22;38766;53.194;5.532;2023-04-24T10:06:44;10.60;99.90
51557;DHT22;38766;53.194;5.532;2023-04-24T10:09:11;10.60;99.90
51557;DHT22;38766;53.194;5.532;2023-04-24T10:11:42;10.70;99.90
51557;DHT22;38766;53.194;5.532;2023-04-24T10:14:10;10.70;99.90
51557;DHT22;38766;53.194;5.532;2023-04-24T10:16:39;10.70;99.90
51557;DHT22;38766;53.194;5.532;2023-04-24T10:19:06;10.70;99.90
51557;DHT22;38766;53.194;5.532;2023-04-24T10:21:32;10.80;99.90
51557;DHT22;38766;53.194;5.532;2023-04-24T10:23:59;10.70;99.90
51557;DHT22;38766;53.194;5.532;2023-04-24T10:26:29;10.70;99.90
51557;DHT22;38766;53.194;5.532;2023-04-24T10:28:57;10.70;99.90
51557;DHT22;38766;53.194;5.532;2023-04-24T10:31:23;10.60;99.90
51557;DHT22;38766;53.194;5.532;2023-04-24T10:33:50;10.50;99.90
51557;DHT22;38766;53.194;5.532;2023-04-24T10:36:17;10.40;99.90
51557;DHT22;38766;53.194;5.532;2023-04-24T10:38:45;10.40;99.90
51557;DHT22;38766;53.194;5.532;2023-04-24T10:41:12;10.30;99.90
51557;DHT22;38766;53.194;5.532;2023-04-24T10:43:45;10.30;99.90
51557;DHT22;38766;53.194;5.532;2023-04-24T10:46:10;10.30;99.90
51557;DHT22;38766;53.194;5.532;2023-04-24T10:48:42;10.30;99.90
51557;DHT22;38766;53.194;5.532;2023-04-24T10:51:12;10.30;99.90
51557;DHT22;38766;53.194;5.532;2023-04-24T10:53:39;10.30;99.90
51557;DHT22;38766;53.194;5.532;2023-04-24T10:56:06;10.30;99.90
51557;DHT22;38766;53.194;5.532;2023-04-24T10:58:52;10.30;99.90
51557;DHT22;38766;53.194;5.532;2023-04-24T11:01:29;10.40;99.90
51557;DHT22;38766;53.194;5.532;2023-04-24T11:04:04;10.50;99.90
51557;DHT22;38766;53.194;5.532;2023-04-24T11:06:34;10.50;99.90
51557;DHT22;38766;53.194;5.532;2023-04-24T11:09:09;10.50;99.90
51557;DHT22;38766;53.194;5.532;2023-04-24T11:11:38;10.60;99.90
51557;DHT22;38766;53.194;5.532;2023-04-24T11:14:09;10.70;99.90
51557;DHT22;38766;53.194;5.532;2023-04-24T11:16:42;10.70;99.90
51557;DHT22;38766;53.194;5.532;2023-04-24T11:21:49;10.60;99.90
51557;DHT22;38766;53.194;5.532;2023-04-24T11:24:37;10.80;99.90
51557;DHT22;38766;53.194;5.532;2023-04-24T11:29:49;10.80;99.90
51557;DHT22;38766;53.194;5.532;2023-04-24T11:32:30;10.80;99.90
51557;DHT22;38766;53.194;5.532;2023-04-24T11:34:58;10.90;99.90
51557;DHT22;38766;53.194;5.532;2023-04-24T11:37:38;10.90;99.90
51557;DHT22;38766;53.194;5.532;2023-04-24T11:40:09;10.90;99.90
51557;DHT22;38766;53.194;5.532;2023-04-24T11:42:39;11.00;99.90
51557;DHT22;38766;53.194;5.532;2023-04-24T11:45:31;11.20;99.90
51557;DHT22;38766;53.194;5.532;2023-04-24T11:47:57;11.40;99.90
51557;DHT22;38766;53.194;5.532;2023-04-24T11:50:25;11.50;99.90
51557;DHT22;38766;53.194;5.532;2023-04-24T11:52:53;11.50;99.90
51557;DHT22;38766;53.194;5.532;2023-04-24T11:57:45;11.50;99.90
51557;DHT22;38766;53.194;5.532;2023-04-24T12:00:22;11.50;99.90
51557;DHT22;38766;53.194;5.532;2023-04-24T12:02:48;11.50;99.90
51557;DHT22;38766;53.194;5.532;2023-04-24T12:05:25;11.50;99.90
51557;DHT22;38766;53.194;5.532;2023-04-24T12:07:52;11.60;99.90
51557;DHT22;38766;53.194;5.532;2023-04-24T12:10:25;11.60;99.90
51557;DHT22;38766;53.194;5.532;2023-04-24T12:12:52;11.60;99.90
51557;DHT22;38766;53.194;5.532;2023-04-24T12:15:20;11.60;99.90
51557;DHT22;38766;53.194;5.532;2023-04-24T12:17:47;11.60;99.90
51557;DHT22;38766;53.194;5.532;2023-04-24T12:20:14;11.60;99.90
51557;DHT22;38766;53.194;5.532;2023-04-24T12:22:52;11.70;99.90
51557;DHT22;38766;53.194;5.532;2023-04-24T12:25:26;11.80;99.90
51557;DHT22;38766;53.194;5.532;2023-04-24T12:28:11;11.80;99.90
51557;DHT22;38766;53.194;5.532;2023-04-24T12:30:42;11.80;99.90
51557;DHT22;38766;53.194;5.532;2023-04-24T12:33:11;11.80;99.90
51557;DHT22;38766;53.194;5.532;2023-04-24T12:35:36;11.70;99.90
51557;DHT22;38766;53.194;5.532;2023-04-24T12:38:06;11.70;99.90
51557;DHT22;38766;53.194;5.532;2023-04-24T12:40:33;11.70;99.90
51557;DHT22;38766;53.194;5.532;2023-04-24T12:42:59;11.70;99.90
51557;DHT22;38766;53.194;5.532;2023-04-24T12:45:25;11.60;99.90
51557;DHT22;38766;53.194;5.532;2023-04-24T12:47:50;11.70;99.90
51557;DHT22;38766;53.194;5.532;2023-04-24T12:50:16;11.60;99.90
51557;DHT22;38766;53.194;5.532;2023-04-24T12:52:43;11.60;99.90
51557;DHT22;38766;53.194;5.532;2023-04-24T12:55:09;11.50;99.90
51557;DHT22;38766;53.194;5.532;2023-04-24T12:57:36;11.50;99.90
51557;DHT22;38766;53.194;5.532;2023-04-24T13:00:03;11.40;99.90
51557;DHT22;38766;53.194;5.532;2023-04-24T13:02:31;11.30;99.90
51557;DHT22;38766;53.194;5.532;2023-04-24T13:04:58;11.20;99.90
51557;DHT22;38766;53.194;5.532;2023-04-24T13:07:24;11.20;99.90
51557;DHT22;38766;53.194;5.532;2023-04-24T13:09:51;11.10;99.90
51557;DHT22;38766;53.194;5.532;2023-04-24T13:12:17;11.00;99.90
51557;DHT22;38766;53.194;5.532;2023-04-24T13:14:43;11.00;99.90
51557;DHT22;38766;53.194;5.532;2023-04-24T13:17:09;11.00;99.90
51557;DHT22;38766;53.194;5.532;2023-04-24T13:19:38;11.00;99.90
51557;DHT22;38766;53.194;5.532;2023-04-24T13:22:05;10.90;99.90
51557;DHT22;38766;53.194;5.532;2023-04-24T13:24:31;10.90;99.90
51557;DHT22;38766;53.194;5.532;2023-04-24T13:26:57;10.90;99.90
51557;DHT22;38766;53.194;5.532;2023-04-24T13:29:23;10.90;99.90
51557;DHT22;38766;53.194;5.532;2023-04-24T13:31:52;10.90;99.90
51557;DHT22;38766;53.194;5.532;2023-04-24T13:34:25;10.80;99.90
51557;DHT22;38766;53.194;5.532;2023-04-24T13:36:55;10.80;99.90
51557;DHT22;38766;53.194;5.532;2023-04-24T13:39:22;10.70;99.90
51557;DHT22;38766;53.194;5.532;2023-04-24T13:41:48;10.60;99.90
51557;DHT22;38766;53.194;5.532;2023-04-24T13:44:18;10.50;99.90
51557;DHT22;38766;53.194;5.532;2023-04-24T13:46:44;10.50;99.90
51557;DHT22;38766;53.194;5.532;2023-04-24T13:49:11;10.60;99.90
51557;DHT22;38766;53.194;5.532;2023-04-24T13:51:38;10.50;99.90
51557;DHT22;38766;53.194;5.532;2023-04-24T13:54:03;10.50;99.90
51557;DHT22;38766;53.194;5.532;2023-04-24T13:56:29;10.40;99.90
51557;DHT22;38766;53.194;5.532;2023-04-24T13:58:55;10.50;99.90
51557;DHT22;38766;53.194;5.532;2023-04-24T14:01:21;10.50;99.90
51557;DHT22;38766;53.194;5.532;2023-04-24T14:03:50;10.40;99.90
51557;DHT22;38766;53.194;5.532;2023-04-24T14:06:17;10.40;99.90
51557;DHT22;38766;53.194;5.532;2023-04-24T14:08:43;10.40;99.90
51557;DHT22;38766;53.194;5.532;2023-04-24T14:11:09;10.40;99.90
51557;DHT22;38766;53.194;5.532;2023-04-24T14:13:36;10.40;99.90
51557;DHT22;38766;53.194;5.532;2023-04-24T14:16:02;10.40;99.90
51557;DHT22;38766;53.194;5.532;2023-04-24T14:18:28;10.40;99.90
51557;DHT22;38766;53.194;5.532;2023-04-24T14:20:54;10.40;99.90
51557;DHT22;38766;53.194;5.532;2023-04-24T14:23:20;10.40;99.90
51557;DHT22;38766;53.194;5.532;2023-04-24T14:25:45;10.40;99.90
51557;DHT22;38766;53.194;5.532;2023-04-24T14:28:11;10.30;99.90
51557;DHT22;38766;53.194;5.532;2023-04-24T14:30:37;10.40;99.90
51557;DHT22;38766;53.194;5.532;2023-04-24T14:33:03;10.20;99.90
51557;DHT22;38766;53.194;5.532;2023-04-24T14:35:29;10.30;99.90
51557;DHT22;38766;53.194;5.532;2023-04-24T14:37:56;10.30;99.90
51557;DHT22;38766;53.194;5.532;2023-04-24T14:40:22;10.20;99.90
51557;DHT22;38766;53.194;5.532;2023-04-24T14:42:48;10.20;99.90
51557;DHT22;38766;53.194;5.532;2023-04-24T14:45:13;10.20;99.90
51557;DHT22;38766;53.194;5.532;2023-04-24T14:47:40;10.20;99.90
51557;DHT22;38766;53.194;5.532;2023-04-24T14:50:06;10.10;99.90
51557;DHT22;38766;53.194;5.532;2023-04-24T14:52:34;10.20;99.90
51557;DHT22;38766;53.194;5.532;2023-04-24T14:55:01;10.20;99.90
51557;DHT22;38766;53.194;5.532;2023-04-24T14:57:26;10.10;99.90
51557;DHT22;38766;53.194;5.532;2023-04-24T14:59:52;10.10;99.90
51557;DHT22;38766;53.194;5.532;2023-04-24T15:02:18;10.00;99.90
51557;DHT22;38766;53.194;5.532;2023-04-24T15:04:44;10.00;99.90
51557;DHT22;38766;53.194;5.532;2023-04-24T15:07:09;10.10;99.90
51557;DHT22;38766;53.194;5.532;2023-04-24T15:09:35;10.00;99.90
51557;DHT22;38766;53.194;5.532;2023-04-24T15:12:01;10.00;99.90
51557;DHT22;38766;53.194;5.532;2023-04-24T15:14:27;10.10;99.90
51557;DHT22;38766;53.194;5.532;2023-04-24T15:16:52;10.00;99.90
51557;DHT22;38766;53.194;5.532;2023-04-24T15:19:18;10.00;99.90
51557;DHT22;38766;53.194;5.532;2023-04-24T15:21:44;9.90;99.90
51557;DHT22;38766;53.194;5.532;2023-04-24T15:24:09;9.90;99.90
51557;DHT22;38766;53.194;5.532;2023-04-24T15:26:35;9.90;99.90
51557;DHT22;38766;53.194;5.532;2023-04-24T15:29:02;9.90;99.90
51557;DHT22;38766;53.194;5.532;2023-04-24T15:31:27;9.90;99.90
51557;DHT22;38766;53.194;5.532;2023-04-24T15:33:53;9.90;99.90
51557;DHT22;38766;53.194;5.532;2023-04-24T15:36:19;10.00;99.90
51557;DHT22;38766;53.194;5.532;2023-04-24T15:38:46;10.00;99.90